Terminal Aerodrome Forecast
Issued by NWS Anchorage, AK

Current Version | Previous Version | Text Only | Print | Product List | Glossary On
Versions: 1 2 3 4 5 6 7 8 9 10 11 12 13 14 15 16
000
FTAK31 PANC 251141 CCB
TAFANC
TAF COR
PANC 251141Z 2512/2618 00000KT P6SM FEW030 BKN050 OVC120
      TEMPO 2512/2515 OVC030
     FM251500 VRB03KT P6SM VCFG FEW005 BKN050 BKN120
     FM252100 VRB03KT P6SM SCT080 SCT120
     FM260600 VRB03KT P6SM BKN060
     FM261500 VRB03KT P6SM VCFG FEW001 SCT060 SCT120=

USA.gov is the U.S. government's official web portal to all federal, state and local government web resources and services.